sensor_id;sensor_type;location;lat;lon;timestamp;pressure;altitude;pressure_sealevel;temperature;humidity
36284;BME280;56085;48.910;9.478;2023-02-15T00:00:16;99495.16;;;-1.24;83.71
36284;BME280;56085;48.910;9.478;2023-02-15T00:02:41;99493.78;;;-1.26;83.52
36284;BME280;56085;48.910;9.478;2023-02-15T00:05:07;99488.94;;;-1.24;83.82
36284;BME280;56085;48.910;9.478;2023-02-15T00:07:32;99485.06;;;-1.28;84.06
36284;BME280;56085;48.910;9.478;2023-02-15T00:09:57;99490.81;;;-1.25;84.08
36284;BME280;56085;48.910;9.478;2023-02-15T00:12:23;99481.59;;;-1.24;84.54
36284;BME280;56085;48.910;9.478;2023-02-15T00:14:48;99478.13;;;-1.19;84.08
36284;BME280;56085;48.910;9.478;2023-02-15T00:17:13;99473.81;;;-1.15;84.26
36284;BME280;56085;48.910;9.478;2023-02-15T00:19:38;99478.72;;;-1.12;84.47
36284;BME280;56085;48.910;9.478;2023-02-15T00:22:04;99472.78;;;-1.09;84.58
36284;BME280;56085;48.910;9.478;2023-02-15T00:24:30;99462.56;;;-1.01;84.58
36284;BME280;56085;48.910;9.478;2023-02-15T00:26:55;99460.53;;;-1.11;85.41
36284;BME280;56085;48.910;9.478;2023-02-15T00:29:20;99471.41;;;-1.11;85.13
36284;BME280;56085;48.910;9.478;2023-02-15T00:31:45;99468.41;;;-1.15;85.66
36284;BME280;56085;48.910;9.478;2023-02-15T00:34:21;99468.28;;;-1.25;85.97
36284;BME280;56085;48.910;9.478;2023-02-15T00:36:47;99460.13;;;-1.25;85.43
36284;BME280;56085;48.910;9.478;2023-02-15T00:39:12;99468.72;;;-1.33;85.60
36284;BME280;56085;48.910;9.478;2023-02-15T00:41:38;99469.50;;;-1.60;86.02
36284;BME280;56085;48.910;9.478;2023-02-15T00:44:03;99475.44;;;-1.63;86.16
36284;BME280;56085;48.910;9.478;2023-02-15T00:46:29;99471.06;;;-1.64;86.07
36284;BME280;56085;48.910;9.478;2023-02-15T00:48:54;99478.00;;;-1.73;85.61
36284;BME280;56085;48.910;9.478;2023-02-15T00:51:19;99484.25;;;-1.73;86.04
36284;BME280;56085;48.910;9.478;2023-02-15T00:53:45;99479.50;;;-1.83;85.85
36284;BME280;56085;48.910;9.478;2023-02-15T00:56:10;99480.38;;;-1.77;86.00
36284;BME280;56085;48.910;9.478;2023-02-15T00:58:36;99471.09;;;-1.81;85.92
36284;BME280;56085;48.910;9.478;2023-02-15T01:01:05;99470.63;;;-1.78;85.97
36284;BME280;56085;48.910;9.478;2023-02-15T01:03:30;99469.50;;;-1.82;85.92
36284;BME280;56085;48.910;9.478;2023-02-15T01:05:56;99464.25;;;-1.89;86.44
36284;BME280;56085;48.910;9.478;2023-02-15T01:08:21;99467.97;;;-1.95;86.18
36284;BME280;56085;48.910;9.478;2023-02-15T01:10:46;99463.09;;;-1.93;86.54
36284;BME280;56085;48.910;9.478;2023-02-15T01:13:12;99460.88;;;-1.96;86.56
36284;BME280;56085;48.910;9.478;2023-02-15T01:15:37;99452.38;;;-2.05;86.98
36284;BME280;56085;48.910;9.478;2023-02-15T01:18:02;99458.84;;;-2.06;87.30
36284;BME280;56085;48.910;9.478;2023-02-15T01:20:28;99460.69;;;-2.12;87.18
36284;BME280;56085;48.910;9.478;2023-02-15T01:22:54;99455.25;;;-2.12;87.21
36284;BME280;56085;48.910;9.478;2023-02-15T01:25:20;99459.03;;;-2.13;87.29
36284;BME280;56085;48.910;9.478;2023-02-15T01:27:46;99455.25;;;-2.12;87.33
36284;BME280;56085;48.910;9.478;2023-02-15T01:30:11;99451.00;;;-2.24;87.23
36284;BME280;56085;48.910;9.478;2023-02-15T01:32:36;99460.19;;;-2.25;87.31
36284;BME280;56085;48.910;9.478;2023-02-15T01:35:02;99461.25;;;-2.26;87.40
36284;BME280;56085;48.910;9.478;2023-02-15T01:37:29;99458.53;;;-2.26;87.25
36284;BME280;56085;48.910;9.478;2023-02-15T01:39:54;99447.47;;;-2.25;87.14
36284;BME280;56085;48.910;9.478;2023-02-15T01:42:23;99441.78;;;-2.23;86.88
36284;BME280;56085;48.910;9.478;2023-02-15T01:44:59;99447.22;;;-2.23;87.11
36284;BME280;56085;48.910;9.478;2023-02-15T01:47:44;99456.34;;;-2.30;86.87
36284;BME280;56085;48.910;9.478;2023-02-15T01:50:12;99444.13;;;-2.49;86.36
36284;BME280;56085;48.910;9.478;2023-02-15T01:52:41;99447.41;;;-2.47;85.99
36284;BME280;56085;48.910;9.478;2023-02-15T01:55:10;99449.56;;;-2.49;86.17
36284;BME280;56085;48.910;9.478;2023-02-15T01:57:35;99451.50;;;-2.44;85.75
36284;BME280;56085;48.910;9.478;2023-02-15T02:00:01;99452.31;;;-2.44;86.01
36284;BME280;56085;48.910;9.478;2023-02-15T02:02:27;99445.69;;;-2.53;86.09
36284;BME280;56085;48.910;9.478;2023-02-15T02:04:54;99460.88;;;-2.52;86.10
36284;BME280;56085;48.910;9.478;2023-02-15T02:07:23;99451.91;;;-2.53;86.03
36284;BME280;56085;48.910;9.478;2023-02-15T02:09:48;99454.88;;;-2.54;86.07
36284;BME280;56085;48.910;9.478;2023-02-15T02:12:14;99436.16;;;-2.56;86.11
36284;BME280;56085;48.910;9.478;2023-02-15T02:14:40;99445.78;;;-2.48;86.22
36284;BME280;56085;48.910;9.478;2023-02-15T02:32:27;99423.69;;;-2.40;86.57
36284;BME280;56085;48.910;9.478;2023-02-15T02:35:01;99426.72;;;-2.36;86.87
36284;BME280;56085;48.910;9.478;2023-02-15T02:37:43;99418.50;;;-2.41;86.70
36284;BME280;56085;48.910;9.478;2023-02-15T02:40:13;99411.78;;;-2.56;86.44
36284;BME280;56085;48.910;9.478;2023-02-15T02:42:41;99412.13;;;-2.52;86.57
36284;BME280;56085;48.910;9.478;2023-02-15T02:47:46;99399.91;;;-2.55;86.93
36284;BME280;56085;48.910;9.478;2023-02-15T02:50:13;99399.50;;;-2.64;86.85
36284;BME280;56085;48.910;9.478;2023-02-15T02:52:46;99398.94;;;-2.66;86.85
36284;BME280;56085;48.910;9.478;2023-02-15T02:57:37;99408.22;;;-2.78;86.84
36284;BME280;56085;48.910;9.478;2023-02-15T03:00:05;99421.31;;;-2.87;86.58
36284;BME280;56085;48.910;9.478;2023-02-15T03:02:34;99421.16;;;-2.97;86.37
36284;BME280;56085;48.910;9.478;2023-02-15T03:05:03;99416.63;;;-3.09;86.57
36284;BME280;56085;48.910;9.478;2023-02-15T03:07:29;99413.91;;;-3.09;86.19
36284;BME280;56085;48.910;9.478;2023-02-15T03:09:56;99412.28;;;-3.10;86.40
36284;BME280;56085;48.910;9.478;2023-02-15T03:14:57;99414.41;;;-3.12;86.82
36284;BME280;56085;48.910;9.478;2023-02-15T03:17:26;99423.44;;;-3.06;87.20
36284;BME280;56085;48.910;9.478;2023-02-15T03:19:53;99420.81;;;-3.01;87.68
36284;BME280;56085;48.910;9.478;2023-02-15T03:22:21;99425.66;;;-3.03;87.95
36284;BME280;56085;48.910;9.478;2023-02-15T03:24:56;99420.13;;;-3.08;88.02
36284;BME280;56085;48.910;9.478;2023-02-15T03:27:27;99421.47;;;-3.11;87.95
36284;BME280;56085;48.910;9.478;2023-02-15T03:29:56;99422.19;;;-3.16;88.04
36284;BME280;56085;48.910;9.478;2023-02-15T03:32:23;99424.88;;;-3.16;87.88
36284;BME280;56085;48.910;9.478;2023-02-15T03:34:50;99424.06;;;-3.16;87.71
36284;BME280;56085;48.910;9.478;2023-02-15T03:40:00;99428.25;;;-3.08;87.60
36284;BME280;56085;48.910;9.478;2023-02-15T03:42:51;99419.22;;;-3.14;87.61
36284;BME280;56085;48.910;9.478;2023-02-15T03:45:21;99413.34;;;-3.11;87.50
36284;BME280;56085;48.910;9.478;2023-02-15T03:47:49;99413.81;;;-3.14;87.39
36284;BME280;56085;48.910;9.478;2023-02-15T03:50:19;99410.91;;;-3.12;87.10
36284;BME280;56085;48.910;9.478;2023-02-15T03:53:05;99411.47;;;-3.10;87.09
36284;BME280;56085;48.910;9.478;2023-02-15T03:55:31;99402.69;;;-3.18;87.44
36284;BME280;56085;48.910;9.478;2023-02-15T03:57:56;99412.75;;;-3.13;87.37
36284;BME280;56085;48.910;9.478;2023-02-15T04:00:40;99407.09;;;-3.11;87.33
36284;BME280;56085;48.910;9.478;2023-02-15T04:05:53;99405.94;;;-3.16;87.30
36284;BME280;56085;48.910;9.478;2023-02-15T04:08:18;99401.13;;;-3.13;87.21
36284;BME280;56085;48.910;9.478;2023-02-15T04:10:43;99408.66;;;-3.16;87.29
36284;BME280;56085;48.910;9.478;2023-02-15T04:13:18;99415.38;;;-3.18;87.50
36284;BME280;56085;48.910;9.478;2023-02-15T04:15:44;99418.25;;;-3.25;87.54
36284;BME280;56085;48.910;9.478;2023-02-15T04:18:28;99419.34;;;-3.38;87.48
36284;BME280;56085;48.910;9.478;2023-02-15T04:21:12;99424.44;;;-3.41;87.63
36284;BME280;56085;48.910;9.478;2023-02-15T04:23:56;99430.47;;;-3.51;87.71
36284;BME280;56085;48.910;9.478;2023-02-15T04:26:40;99433.19;;;-3.63;87.44
36284;BME280;56085;48.910;9.478;2023-02-15T04:29:05;99424.28;;;-3.63;87.66
36284;BME280;56085;48.910;9.478;2023-02-15T04:31:30;99421.22;;;-3.67;87.73
36284;BME280;56085;48.910;9.478;2023-02-15T04:33:56;99411.00;;;-3.65;88.08
36284;BME280;56085;48.910;9.478;2023-02-15T04:36:21;99404.53;;;-3.64;88.22
36284;BME280;56085;48.910;9.478;2023-02-15T04:38:46;99402.16;;;-3.60;88.41
36284;BME280;56085;48.910;9.478;2023-02-15T04:41:11;99397.09;;;-3.57;88.75
36284;BME280;56085;48.910;9.478;2023-02-15T04:43:38;99396.38;;;-3.52;89.34
36284;BME280;56085;48.910;9.478;2023-02-15T04:46:03;99402.69;;;-3.46;89.38
36284;BME280;56085;48.910;9.478;2023-02-15T04:48:28;99399.78;;;-3.57;89.47
36284;BME280;56085;48.910;9.478;2023-02-15T04:50:54;99399.13;;;-3.64;89.48
36284;BME280;56085;48.910;9.478;2023-02-15T04:53:19;99411.94;;;-3.71;89.42
36284;BME280;56085;48.910;9.478;2023-02-15T04:55:44;99404.22;;;-3.79;88.96
36284;BME280;56085;48.910;9.478;2023-02-15T04:58:09;99405.28;;;-3.80;89.19
36284;BME280;56085;48.910;9.478;2023-02-15T05:00:34;99402.47;;;-3.86;88.93
36284;BME280;56085;48.910;9.478;2023-02-15T05:02:59;99397.91;;;-3.85;88.95
36284;BME280;56085;48.910;9.478;2023-02-15T05:05:25;99401.66;;;-3.86;88.79
36284;BME280;56085;48.910;9.478;2023-02-15T05:07:50;99394.84;;;-3.89;88.66
36284;BME280;56085;48.910;9.478;2023-02-15T05:10:15;99400.84;;;-3.87;88.96
36284;BME280;56085;48.910;9.478;2023-02-15T05:12:40;99400.59;;;-3.85;88.52
36284;BME280;56085;48.910;9.478;2023-02-15T05:15:06;99395.44;;;-3.87;88.39
36284;BME280;56085;48.910;9.478;2023-02-15T05:17:31;99390.28;;;-3.88;88.32
36284;BME280;56085;48.910;9.478;2023-02-15T05:19:56;99382.75;;;-3.86;88.29
36284;BME280;56085;48.910;9.478;2023-02-15T05:22:21;99386.72;;;-3.89;88.26
36284;BME280;56085;48.910;9.478;2023-02-15T05:24:46;99380.75;;;-3.91;88.21
36284;BME280;56085;48.910;9.478;2023-02-15T05:27:30;99385.94;;;-3.89;88.10
36284;BME280;56085;48.910;9.478;2023-02-15T05:30:14;99380.19;;;-3.93;87.99
36284;BME280;56085;48.910;9.478;2023-02-15T05:32:39;99374.44;;;-3.96;87.90
36284;BME280;56085;48.910;9.478;2023-02-15T05:35:05;99382.53;;;-3.96;88.08
36284;BME280;56085;48.910;9.478;2023-02-15T05:37:30;99380.88;;;-3.97;88.15
36284;BME280;56085;48.910;9.478;2023-02-15T05:39:56;99383.59;;;-3.97;88.35
36284;BME280;56085;48.910;9.478;2023-02-15T05:42:21;99390.06;;;-3.98;88.09
36284;BME280;56085;48.910;9.478;2023-02-15T05:44:46;99387.72;;;-4.07;87.96
36284;BME280;56085;48.910;9.478;2023-02-15T05:47:11;99394.91;;;-4.12;87.93
36284;BME280;56085;48.910;9.478;2023-02-15T05:49:36;99394.13;;;-4.25;88.10
36284;BME280;56085;48.910;9.478;2023-02-15T05:52:02;99388.09;;;-4.27;87.92
36284;BME280;56085;48.910;9.478;2023-02-15T05:54:27;99386.25;;;-4.26;87.81
36284;BME280;56085;48.910;9.478;2023-02-15T05:56:52;99393.41;;;-4.20;88.42
36284;BME280;56085;48.910;9.478;2023-02-15T05:59:18;99392.09;;;-4.17;88.18
36284;BME280;56085;48.910;9.478;2023-02-15T06:01:43;99391.50;;;-4.19;88.37
36284;BME280;56085;48.910;9.478;2023-02-15T06:04:08;99408.31;;;-4.17;88.39
36284;BME280;56085;48.910;9.478;2023-02-15T06:06:33;99400.91;;;-4.22;88.44
36284;BME280;56085;48.910;9.478;2023-02-15T06:08:59;99405.97;;;-4.26;88.56
36284;BME280;56085;48.910;9.478;2023-02-15T06:11:24;99404.06;;;-4.25;88.43
36284;BME280;56085;48.910;9.478;2023-02-15T06:13:50;99405.38;;;-4.28;88.41
36284;BME280;56085;48.910;9.478;2023-02-15T06:16:15;99413.50;;;-4.28;88.33
36284;BME280;56085;48.910;9.478;2023-02-15T06:18:41;99400.44;;;-4.31;88.36
36284;BME280;56085;48.910;9.478;2023-02-15T06:21:06;99420.41;;;-4.32;88.26
36284;BME280;56085;48.910;9.478;2023-02-15T06:23:31;99413.25;;;-4.38;88.02
36284;BME280;56085;48.910;9.478;2023-02-15T06:25:56;99417.13;;;-4.34;88.18
36284;BME280;56085;48.910;9.478;2023-02-15T06:28:21;99414.31;;;-4.39;88.44
36284;BME280;56085;48.910;9.478;2023-02-15T06:30:47;99416.53;;;-4.36;88.10
36284;BME280;56085;48.910;9.478;2023-02-15T06:33:12;99419.81;;;-4.34;88.37
36284;BME280;56085;48.910;9.478;2023-02-15T06:35:37;99426.53;;;-4.36;88.10
36284;BME280;56085;48.910;9.478;2023-02-15T06:38:02;99421.69;;;-4.34;87.93
36284;BME280;56085;48.910;9.478;2023-02-15T06:40:28;99420.91;;;-4.35;87.81
36284;BME280;56085;48.910;9.478;2023-02-15T06:42:53;99420.91;;;-4.35;87.92
36284;BME280;56085;48.910;9.478;2023-02-15T06:45:18;99423.13;;;-4.32;87.66
36284;BME280;56085;48.910;9.478;2023-02-15T06:47:43;99419.94;;;-4.29;87.58
36284;BME280;56085;48.910;9.478;2023-02-15T06:50:09;99429.31;;;-4.31;87.35
36284;BME280;56085;48.910;9.478;2023-02-15T06:52:34;99428.75;;;-4.33;87.76
36284;BME280;56085;48.910;9.478;2023-02-15T06:54:59;99431.22;;;-4.32;87.68
36284;BME280;56085;48.910;9.478;2023-02-15T06:57:24;99430.75;;;-4.29;87.84
36284;BME280;56085;48.910;9.478;2023-02-15T06:59:49;99430.75;;;-4.29;87.71
36284;BME280;56085;48.910;9.478;2023-02-15T07:02:15;99433.31;;;-4.22;87.75
36284;BME280;56085;48.910;9.478;2023-02-15T07:04:40;99435.09;;;-4.16;87.84
36284;BME280;56085;48.910;9.478;2023-02-15T07:07:08;99441.16;;;-4.21;88.02
36284;BME280;56085;48.910;9.478;2023-02-15T07:09:35;99438.13;;;-4.24;87.54
36284;BME280;56085;48.910;9.478;2023-02-15T07:12:00;99441.53;;;-4.29;87.74
36284;BME280;56085;48.910;9.478;2023-02-15T07:14:44;99443.06;;;-4.21;87.65
36284;BME280;56085;48.910;9.478;2023-02-15T07:17:09;99439.41;;;-4.15;88.06
36284;BME280;56085;48.910;9.478;2023-02-15T07:19:34;99431.44;;;-4.10;87.77
36284;BME280;56085;48.910;9.478;2023-02-15T07:21:59;99431.06;;;-4.01;87.86
36284;BME280;56085;48.910;9.478;2023-02-15T07:24:25;99441.25;;;-3.92;88.17
36284;BME280;56085;48.910;9.478;2023-02-15T07:26:50;99441.94;;;-3.84;87.94
36284;BME280;56085;48.910;9.478;2023-02-15T07:29:15;99441.81;;;-3.78;87.99
36284;BME280;56085;48.910;9.478;2023-02-15T07:31:40;99437.91;;;-3.70;88.02
36284;BME280;56085;48.910;9.478;2023-02-15T07:34:08;99448.13;;;-3.60;87.66
36284;BME280;56085;48.910;9.478;2023-02-15T07:36:33;99446.22;;;-3.60;87.80
36284;BME280;56085;48.910;9.478;2023-02-15T07:38:58;99452.00;;;-3.56;87.36
36284;BME280;56085;48.910;9.478;2023-02-15T07:41:23;99449.88;;;-3.54;87.58
36284;BME280;56085;48.910;9.478;2023-02-15T07:43:48;99449.50;;;-3.58;87.24
36284;BME280;56085;48.910;9.478;2023-02-15T07:46:14;99442.31;;;-3.52;87.08
36284;BME280;56085;48.910;9.478;2023-02-15T07:48:40;99444.97;;;-3.40;87.23
36284;BME280;56085;48.910;9.478;2023-02-15T07:51:07;99451.66;;;-3.31;86.93
36284;BME280;56085;48.910;9.478;2023-02-15T07:53:33;99449.16;;;-3.21;87.31
36284;BME280;56085;48.910;9.478;2023-02-15T07:55:59;99446.06;;;-3.12;87.24
36284;BME280;56085;48.910;9.478;2023-02-15T07:58:25;99445.41;;;-3.03;87.26
36284;BME280;56085;48.910;9.478;2023-02-15T08:01:10;99442.06;;;-2.93;87.12
36284;BME280;56085;48.910;9.478;2023-02-15T08:03:35;99444.13;;;-2.83;87.14
36284;BME280;56085;48.910;9.478;2023-02-15T08:06:00;99435.28;;;-2.78;87.41
36284;BME280;56085;48.910;9.478;2023-02-15T08:08:26;99425.78;;;-2.64;87.39
36284;BME280;56085;48.910;9.478;2023-02-15T08:14:03;99434.09;;;-2.32;87.56
36284;BME280;56085;48.910;9.478;2023-02-15T08:16:30;99431.28;;;-2.20;87.71
36284;BME280;56085;48.910;9.478;2023-02-15T08:18:56;99424.69;;;-2.07;87.98
36284;BME280;56085;48.910;9.478;2023-02-15T08:21:21;99431.56;;;-1.99;87.97
36284;BME280;56085;48.910;9.478;2023-02-15T08:23:47;99431.72;;;-1.89;87.81
36284;BME280;56085;48.910;9.478;2023-02-15T08:26:12;99426.66;;;-1.80;87.88
36284;BME280;56085;48.910;9.478;2023-02-15T08:28:37;99436.25;;;-1.72;87.49
36284;BME280;56085;48.910;9.478;2023-02-15T08:31:04;99438.84;;;-1.61;87.75
36284;BME280;56085;48.910;9.478;2023-02-15T08:33:29;99434.66;;;-1.46;87.54
36284;BME280;56085;48.910;9.478;2023-02-15T08:35:54;99439.91;;;-1.39;87.02
36284;BME280;56085;48.910;9.478;2023-02-15T08:38:19;99449.72;;;-1.33;86.69
36284;BME280;56085;48.910;9.478;2023-02-15T08:40:45;99437.38;;;-1.24;86.81
36284;BME280;56085;48.910;9.478;2023-02-15T08:43:10;99441.28;;;-1.10;86.20
36284;BME280;56085;48.910;9.478;2023-02-15T08:45:35;99432.44;;;-1.00;86.54
36284;BME280;56085;48.910;9.478;2023-02-15T08:48:01;99436.09;;;-0.89;85.57
36284;BME280;56085;48.910;9.478;2023-02-15T08:50:26;99435.91;;;-0.77;85.51
36284;BME280;56085;48.910;9.478;2023-02-15T08:52:51;99444.94;;;-0.66;85.83
36284;BME280;56085;48.910;9.478;2023-02-15T08:55:16;99445.09;;;-0.51;85.35
36284;BME280;56085;48.910;9.478;2023-02-15T08:57:41;99439.47;;;-0.39;85.61
36284;BME280;56085;48.910;9.478;2023-02-15T09:00:09;99440.09;;;-0.27;85.51
36284;BME280;56085;48.910;9.478;2023-02-15T09:02:35;99434.75;;;-0.11;85.28
36284;BME280;56085;48.910;9.478;2023-02-15T09:05:01;99428.31;;;0.00;84.22
36284;BME280;56085;48.910;9.478;2023-02-15T09:07:26;99426.72;;;0.09;84.02
36284;BME280;56085;48.910;9.478;2023-02-15T09:09:51;99430.03;;;0.22;84.23
36284;BME280;56085;48.910;9.478;2023-02-15T09:12:16;99423.81;;;0.31;83.91
36284;BME280;56085;48.910;9.478;2023-02-15T09:14:41;99426.06;;;0.50;83.70
36284;BME280;56085;48.910;9.478;2023-02-15T09:17:07;99428.81;;;0.65;83.40
36284;BME280;56085;48.910;9.478;2023-02-15T09:19:32;99420.97;;;0.79;83.05
36284;BME280;56085;48.910;9.478;2023-02-15T09:21:57;99413.66;;;0.95;83.26
36284;BME280;56085;48.910;9.478;2023-02-15T09:24:23;99405.50;;;1.06;82.34
36284;BME280;56085;48.910;9.478;2023-02-15T09:26:48;99400.88;;;1.21;82.14
36284;BME280;56085;48.910;9.478;2023-02-15T09:29:14;99402.75;;;1.42;82.17
36284;BME280;56085;48.910;9.478;2023-02-15T09:31:41;99396.22;;;1.63;82.13
36284;BME280;56085;48.910;9.478;2023-02-15T09:34:09;99383.66;;;1.83;81.73
36284;BME280;56085;48.910;9.478;2023-02-15T09:36:36;99395.84;;;2.01;81.76
36284;BME280;56085;48.910;9.478;2023-02-15T09:39:09;99391.72;;;2.08;81.31
36284;BME280;56085;48.910;9.478;2023-02-15T09:41:45;99388.97;;;2.24;81.03
36284;BME280;56085;48.910;9.478;2023-02-15T09:47:01;99381.19;;;2.47;80.61
36284;BME280;56085;48.910;9.478;2023-02-15T09:49:33;99379.44;;;2.71;79.96
36284;BME280;56085;48.910;9.478;2023-02-15T09:52:07;99388.06;;;2.89;79.67
36284;BME280;56085;48.910;9.478;2023-02-15T09:57:33;99379.59;;;3.25;79.18
36284;BME280;56085;48.910;9.478;2023-02-15T10:00:03;99375.41;;;3.38;78.38
36284;BME280;56085;48.910;9.478;2023-02-15T10:02:36;99368.16;;;3.52;78.18
36284;BME280;56085;48.910;9.478;2023-02-15T10:05:11;99369.34;;;3.70;77.99
36284;BME280;56085;48.910;9.478;2023-02-15T10:10:21;99368.78;;;3.97;77.14
36284;BME280;56085;48.910;9.478;2023-02-15T10:18:21;99362.03;;;4.76;76.00
36284;BME280;56085;48.910;9.478;2023-02-15T10:25:42;99351.97;;;5.23;74.55
36284;BME280;56085;48.910;9.478;2023-02-15T10:30:51;99344.38;;;5.81;73.39
36284;BME280;56085;48.910;9.478;2023-02-15T10:36:05;99330.78;;;6.04;72.98
36284;BME280;56085;48.910;9.478;2023-02-15T10:38:42;99336.66;;;6.25;72.18
36284;BME280;56085;48.910;9.478;2023-02-15T10:46:27;99334.22;;;6.96;71.13
36284;BME280;56085;48.910;9.478;2023-02-15T10:49:05;99328.31;;;7.03;70.52
36284;BME280;56085;48.910;9.478;2023-02-15T10:51:40;99328.47;;;7.29;69.88
36284;BME280;56085;48.910;9.478;2023-02-15T10:54:16;99326.53;;;7.53;69.06
36284;BME280;56085;48.910;9.478;2023-02-15T10:57:03;99326.28;;;7.72;68.79
36284;BME280;56085;48.910;9.478;2023-02-15T10:59:36;99318.94;;;7.98;68.67
36284;BME280;56085;48.910;9.478;2023-02-15T11:02:27;99317.38;;;8.15;68.43
36284;BME280;56085;48.910;9.478;2023-02-15T11:04:55;99312.41;;;8.34;67.10
36284;BME280;56085;48.910;9.478;2023-02-15T11:07:33;99307.25;;;8.50;66.83
36284;BME280;56085;48.910;9.478;2023-02-15T11:12:43;99305.50;;;8.89;66.51
36284;BME280;56085;48.910;9.478;2023-02-15T11:15:21;99308.91;;;9.13;66.00
36284;BME280;56085;48.910;9.478;2023-02-15T11:17:52;99305.13;;;9.26;65.06
36284;BME280;56085;48.910;9.478;2023-02-15T11:22:49;99293.31;;;9.73;64.19
36284;BME280;56085;48.910;9.478;2023-02-15T11:25:17;99289.09;;;10.05;63.81
36284;BME280;56085;48.910;9.478;2023-02-15T11:27:44;99294.69;;;10.18;63.35
36284;BME280;56085;48.910;9.478;2023-02-15T11:30:11;99289.09;;;10.05;63.30
36284;BME280;56085;48.910;9.478;2023-02-15T11:32:41;99291.66;;;10.40;62.33
36284;BME280;56085;48.910;9.478;2023-02-15T11:37:38;99286.94;;;10.83;61.92
36284;BME280;56085;48.910;9.478;2023-02-15T11:40:14;99288.50;;;10.93;61.24
36284;BME280;56085;48.910;9.478;2023-02-15T11:42:40;99282.81;;;10.89;60.75
36284;BME280;56085;48.910;9.478;2023-02-15T11:47:49;99285.97;;;11.33;59.69
36284;BME280;56085;48.910;9.478;2023-02-15T11:50:16;99278.63;;;11.50;59.17
36284;BME280;56085;48.910;9.478;2023-02-15T11:52:43;99278.41;;;11.55;58.66
36284;BME280;56085;48.910;9.478;2023-02-15T11:55:12;99276.69;;;11.63;58.10
36284;BME280;56085;48.910;9.478;2023-02-15T11:57:41;99281.31;;;11.83;57.64
36284;BME280;56085;48.910;9.478;2023-02-15T12:00:27;99275.81;;;11.96;57.19
36284;BME280;56085;48.910;9.478;2023-02-15T12:02:56;99280.50;;;12.32;56.82
36284;BME280;56085;48.910;9.478;2023-02-15T12:05:23;99283.31;;;12.73;56.56
36284;BME280;56085;48.910;9.478;2023-02-15T12:07:50;99286.09;;;13.30;56.27
36284;BME280;56085;48.910;9.478;2023-02-15T12:12:42;99284.84;;;14.03;55.36
36284;BME280;56085;48.910;9.478;2023-02-15T12:15:08;99281.16;;;15.06;54.88
36284;BME280;56085;48.910;9.478;2023-02-15T12:17:37;99314.59;;;18.70;54.38
36284;BME280;56085;48.910;9.478;2023-02-15T12:20:06;99296.81;;;25.08;53.74
36284;BME280;56085;48.910;9.478;2023-02-15T12:22:33;99301.16;;;27.92;52.50
36284;BME280;56085;48.910;9.478;2023-02-15T12:24:59;99329.88;;;30.09;50.42
36284;BME280;56085;48.910;9.478;2023-02-15T12:27:29;99326.94;;;31.52;48.11
36284;BME280;56085;48.910;9.478;2023-02-15T12:29:59;99307.25;;;32.30;46.17
36284;BME280;56085;48.910;9.478;2023-02-15T12:32:28;99304.63;;;33.05;43.95
36284;BME280;56085;48.910;9.478;2023-02-15T12:37:53;99287.72;;;34.58;40.43
36284;BME280;56085;48.910;9.478;2023-02-15T12:40:21;99260.47;;;35.21;38.80
36284;BME280;56085;48.910;9.478;2023-02-15T12:42:46;99260.91;;;35.14;37.32
36284;BME280;56085;48.910;9.478;2023-02-15T12:45:28;99274.50;;;35.40;36.35
36284;BME280;56085;48.910;9.478;2023-02-15T12:48:07;99298.31;;;36.15;34.45
36284;BME280;56085;48.910;9.478;2023-02-15T12:50:33;99278.78;;;35.88;33.60
36284;BME280;56085;48.910;9.478;2023-02-15T12:55:33;99211.97;;;36.98;31.71
36284;BME280;56085;48.910;9.478;2023-02-15T13:03:37;99201.97;;;37.84;28.84
36284;BME280;56085;48.910;9.478;2023-02-15T13:06:03;99248.34;;;38.09;27.60
36284;BME280;56085;48.910;9.478;2023-02-15T13:08:33;99193.88;;;37.54;27.08
36284;BME280;56085;48.910;9.478;2023-02-15T13:11:08;99169.09;;;38.10;26.72
36284;BME280;56085;48.910;9.478;2023-02-15T13:13:36;99191.53;;;38.34;25.81
36284;BME280;56085;48.910;9.478;2023-02-15T13:16:04;99200.41;;;37.66;25.38
36284;BME280;56085;48.910;9.478;2023-02-15T13:18:33;99205.22;;;38.34;24.50
36284;BME280;56085;48.910;9.478;2023-02-15T13:21:01;99173.47;;;37.13;23.89
36284;BME280;56085;48.910;9.478;2023-02-15T13:23:29;99148.28;;;37.53;23.60
36284;BME280;56085;48.910;9.478;2023-02-15T13:25:57;99213.03;;;37.41;23.11
36284;BME280;56085;48.910;9.478;2023-02-15T13:28:24;99179.69;;;38.44;22.49
36284;BME280;56085;48.910;9.478;2023-02-15T13:30:51;99170.22;;;38.90;21.98
36284;BME280;56085;48.910;9.478;2023-02-15T13:33:23;99215.34;;;38.99;21.57
36284;BME280;56085;48.910;9.478;2023-02-15T13:35:56;99171.38;;;40.11;21.16
36284;BME280;56085;48.910;9.478;2023-02-15T13:38:30;99178.13;;;39.75;20.56
36284;BME280;56085;48.910;9.478;2023-02-15T13:41:00;99157.19;;;39.39;20.27
36284;BME280;56085;48.910;9.478;2023-02-15T13:51:20;99140.97;;;38.22;18.53
36284;BME280;56085;48.910;9.478;2023-02-15T13:53:55;99137.72;;;38.79;18.67
36284;BME280;56085;48.910;9.478;2023-02-15T13:56:36;99137.22;;;39.35;18.13
36284;BME280;56085;48.910;9.478;2023-02-15T13:59:24;99089.66;;;39.55;17.73
36284;BME280;56085;48.910;9.478;2023-02-15T14:01:57;99125.66;;;38.33;17.72
36284;BME280;56085;48.910;9.478;2023-02-15T14:07:04;99084.31;;;38.85;17.28
36284;BME280;56085;48.910;9.478;2023-02-15T14:09:40;99102.34;;;38.25;17.08
36284;BME280;56085;48.910;9.478;2023-02-15T14:17:38;99085.66;;;39.83;16.37
36284;BME280;56085;48.910;9.478;2023-02-15T14:20:14;99080.00;;;38.31;15.75
36284;BME280;56085;48.910;9.478;2023-02-15T14:23:05;99096.69;;;38.50;15.95
36284;BME280;56085;48.910;9.478;2023-02-15T14:25:35;99099.50;;;38.61;15.57
36284;BME280;56085;48.910;9.478;2023-02-15T14:30:37;99112.69;;;37.05;15.39
36284;BME280;56085;48.910;9.478;2023-02-15T14:33:07;99099.81;;;37.17;15.32
36284;BME280;56085;48.910;9.478;2023-02-15T14:35:33;99122.56;;;37.49;15.36
36284;BME280;56085;48.910;9.478;2023-02-15T14:40:33;99098.56;;;36.79;15.04
36284;BME280;56085;48.910;9.478;2023-02-15T14:48:43;99096.97;;;37.00;14.38
36284;BME280;56085;48.910;9.478;2023-02-15T14:51:10;99042.25;;;35.12;14.35
36284;BME280;56085;48.910;9.478;2023-02-15T14:53:36;99094.13;;;30.62;14.58
36284;BME280;56085;48.910;9.478;2023-02-15T14:56:13;99087.81;;;29.06;14.83
36284;BME280;56085;48.910;9.478;2023-02-15T15:01:30;99092.28;;;26.75;15.15